Time;durP1;ratioP1;P1;durP2;ratioP2;P2;SDS_P1;SDS_P2;PMS_P1;PMS_P2;Temp;Humidity;BMP_temperature;BMP_pressure;BME280_temperature;BME280_humidity;BME280_pressure;Samples;Min_cycle;Max_cycle;Signal;HPM_P1;HPM_P2
2023/08/09 00:02:11;;;;;;;5.38;1.00;;;11.60;99.90;;;;;;5024493;28;20034;-83
2023/08/09 00:04:37;;;;;;;9.43;1.77;;;11.50;99.90;;;;;;5022072;28;20068;-83
2023/08/09 00:07:02;;;;;;;1.48;1.00;;;11.50;99.90;;;;;;5024560;28;20032;-83
2023/08/09 00:09:28;;;;;;;3.22;1.23;;;11.40;99.90;;;;;;5024110;28;20558;-83
2023/08/09 00:11:53;;;;;;;4.93;1.08;;;11.40;99.90;;;;;;5018823;28;20025;-84
2023/08/09 00:14:19;;;;;;;4.78;1.58;;;11.40;99.90;;;;;;5015281;28;20079;-82
2023/08/09 00:16:45;;;;;;;2.92;1.15;;;11.30;99.90;;;;;;5011531;28;20022;-83
2023/08/09 00:19:10;;;;;;;5.18;1.35;;;11.30;99.90;;;;;;5024759;28;20021;-83
2023/08/09 00:21:36;;;;;;;4.93;1.42;;;11.30;99.90;;;;;;5015587;28;20030;-82
2023/08/09 00:24:03;;;;;;;4.60;1.10;;;11.30;99.90;;;;;;5022730;28;20060;-83
2023/08/09 00:26:28;;;;;;;1.52;1.17;;;11.30;99.90;;;;;;5027280;28;20018;-82
2023/08/09 00:28:54;;;;;;;2.97;1.38;;;11.30;99.90;;;;;;5025481;28;20026;-82
2023/08/09 00:31:19;;;;;;;7.15;1.30;;;11.20;99.90;;;;;;5025025;28;20034;-82
2023/08/09 00:33:45;;;;;;;6.47;1.80;;;11.20;99.90;;;;;;5025973;28;20047;-81
2023/08/09 00:36:10;;;;;;;3.95;1.58;;;11.20;99.90;;;;;;5023061;28;20029;-83
2023/08/09 00:38:36;;;;;;;3.25;0.90;;;11.20;99.90;;;;;;5021588;28;20025;-83
2023/08/09 00:41:02;;;;;;;6.50;1.58;;;11.20;99.90;;;;;;5017182;28;20021;-84
2023/08/09 00:43:28;;;;;;;7.20;1.50;;;11.10;99.90;;;;;;5024185;28;20602;-83
2023/08/09 00:45:54;;;;;;;3.38;1.38;;;11.10;99.90;;;;;;5024632;28;20045;-84
2023/08/09 00:48:20;;;;;;;3.97;1.30;;;11.00;99.90;;;;;;5027860;28;20025;-83
2023/08/09 00:50:46;;;;;;;2.90;1.40;;;11.00;99.90;;;;;;5023940;28;20664;-84
2023/08/09 00:53:12;;;;;;;4.13;1.20;;;11.00;99.90;;;;;;5031576;28;20029;-84
2023/08/09 00:55:39;;;;;;;3.20;1.75;;;11.00;99.90;;;;;;5023594;28;20028;-84
2023/08/09 00:58:05;;;;;;;4.90;1.08;;;10.90;99.90;;;;;;5023679;28;20025;-83
2023/08/09 01:00:31;;;;;;;2.45;1.05;;;11.00;99.90;;;;;;5023145;28;20133;-83
2023/08/09 01:02:57;;;;;;;2.40;1.40;;;11.00;99.90;;;;;;5022016;28;20097;-84
2023/08/09 01:05:30;;;;;;;5.80;1.50;;;11.00;99.90;;;;;;5019005;28;20030;-84
2023/08/09 01:08:07;;;;;;;4.95;1.00;;;11.00;99.90;;;;;;5027299;28;20036;-84
2023/08/09 01:10:49;;;;;;;3.67;1.20;;;11.00;99.90;;;;;;5024216;28;20021;-83
2023/08/09 01:13:19;;;;;;;6.60;1.38;;;11.00;99.90;;;;;;5025980;28;20030;-83
2023/08/09 01:15:46;;;;;;;3.88;1.00;;;11.00;99.90;;;;;;5027116;28;20780;-84
2023/08/09 01:18:13;;;;;;;3.22;1.17;;;11.00;99.90;;;;;;5028759;28;20054;-83
2023/08/09 01:20:40;;;;;;;3.50;1.40;;;11.00;99.90;;;;;;5023306;28;20675;-84
2023/08/09 01:23:17;;;;;;;2.50;0.80;;;11.00;99.90;;;;;;5024772;28;20033;-82
2023/08/09 01:25:43;;;;;;;6.63;0.85;;;11.00;99.90;;;;;;5020893;28;20026;-85
2023/08/09 01:28:09;;;;;;;4.57;1.55;;;11.00;99.90;;;;;;5022760;28;20113;-85
2023/08/09 01:30:35;;;;;;;3.70;1.30;;;11.00;99.90;;;;;;5025776;28;20050;-83
2023/08/09 01:33:01;;;;;;;4.55;1.30;;;10.90;99.90;;;;;;5027181;28;20037;-83
2023/08/09 01:35:34;;;;;;;3.42;1.13;;;10.90;99.90;;;;;;5025920;28;20037;-84
2023/08/09 01:38:05;;;;;;;3.88;1.58;;;10.90;99.90;;;;;;5025048;28;20026;-82
2023/08/09 01:40:32;;;;;;;4.13;1.27;;;10.90;99.90;;;;;;5023101;28;20033;-84
2023/08/09 01:43:05;;;;;;;7.10;1.17;;;10.90;99.90;;;;;;5020735;28;20022;-82
2023/08/09 01:45:31;;;;;;;5.13;1.15;;;10.80;99.90;;;;;;5030231;28;20568;-84
2023/08/09 01:47:57;;;;;;;3.95;1.55;;;10.90;99.90;;;;;;5024853;28;20121;-84
2023/08/09 01:50:25;;;;;;;2.10;0.80;;;10.90;99.90;;;;;;5020601;28;20018;-84
2023/08/09 01:52:55;;;;;;;2.78;1.33;;;10.80;99.90;;;;;;5024923;28;20034;-83
2023/08/09 01:55:24;;;;;;;4.63;1.10;;;10.80;99.90;;;;;;5022215;28;20026;-83
2023/08/09 01:57:49;;;;;;;4.25;1.05;;;10.70;99.90;;;;;;5028356;28;20025;-83
2023/08/09 02:00:19;;;;;;;4.25;1.15;;;10.80;99.90;;;;;;5023514;28;20041;-82
2023/08/09 02:02:45;;;;;;;6.05;1.60;;;10.70;99.90;;;;;;5020677;28;20034;-83
2023/08/09 02:05:11;;;;;;;5.28;1.15;;;10.70;99.90;;;;;;5025297;28;20057;-83
2023/08/09 02:07:37;;;;;;;2.03;1.02;;;10.70;99.90;;;;;;5031147;28;20061;-83
2023/08/09 02:10:04;;;;;;;4.55;1.30;;;10.70;99.90;;;;;;5031781;28;20033;-82
2023/08/09 02:12:30;;;;;;;5.70;1.17;;;10.70;99.90;;;;;;5030591;28;20060;-84
2023/08/09 02:14:55;;;;;;;2.90;1.40;;;10.70;99.90;;;;;;5031013;28;20460;-83
2023/08/09 02:17:22;;;;;;;6.13;1.60;;;10.70;99.90;;;;;;5028688;28;20120;-82
2023/08/09 02:19:50;;;;;;;5.10;1.30;;;10.70;99.90;;;;;;5021432;28;20154;-81
2023/08/09 02:22:19;;;;;;;6.68;1.50;;;10.70;99.90;;;;;;5032763;28;20010;-81
2023/08/09 02:24:45;;;;;;;2.60;1.20;;;10.80;99.90;;;;;;5058539;28;20021;-82
2023/08/09 02:27:12;;;;;;;5.43;1.50;;;10.80;99.90;;;;;;5035218;28;20033;-84
2023/08/09 02:29:37;;;;;;;2.33;1.08;;;10.80;99.90;;;;;;5024405;28;20044;-83
2023/08/09 02:32:03;;;;;;;1.10;1.00;;;10.80;99.90;;;;;;5015348;28;20640;-84
2023/08/09 02:34:30;;;;;;;3.28;1.10;;;10.80;99.90;;;;;;5028220;28;20029;-83
2023/08/09 02:36:56;;;;;;;4.53;1.40;;;10.80;99.90;;;;;;5026239;28;20032;-83
2023/08/09 02:39:22;;;;;;;3.50;1.10;;;10.80;99.90;;;;;;5034280;28;20030;-83
2023/08/09 02:41:48;;;;;;;2.75;1.08;;;10.80;99.90;;;;;;5027022;28;20472;-83
2023/08/09 02:44:14;;;;;;;2.25;1.15;;;10.80;99.90;;;;;;5031670;28;20036;-84
2023/08/09 02:46:40;;;;;;;3.70;1.20;;;10.80;99.90;;;;;;5026132;28;20077;-85
2023/08/09 02:49:06;;;;;;;2.53;1.05;;;10.80;99.90;;;;;;5021633;28;20045;-83
2023/08/09 02:51:32;;;;;;;2.58;1.25;;;10.70;99.90;;;;;;5030499;28;20024;-85
2023/08/09 02:54:01;;;;;;;1.48;0.65;;;10.70;99.90;;;;;;5016903;28;20072;-85
2023/08/09 02:56:28;;;;;;;2.92;1.15;;;10.70;99.90;;;;;;5022910;28;20021;-84
2023/08/09 02:58:54;;;;;;;3.28;0.80;;;10.70;99.90;;;;;;5021135;28;20033;-84
2023/08/09 03:01:23;;;;;;;2.85;1.05;;;10.60;99.90;;;;;;5024015;28;20034;-83
2023/08/09 03:03:53;;;;;;;6.50;1.70;;;10.60;99.90;;;;;;5021110;28;20476;-84
2023/08/09 03:06:22;;;;;;;3.40;1.20;;;10.60;99.90;;;;;;5015674;28;20108;-81
2023/08/09 03:08:48;;;;;;;4.57;1.13;;;10.60;99.90;;;;;;5028721;28;20026;-83
2023/08/09 03:11:14;;;;;;;3.35;1.27;;;10.60;99.90;;;;;;5024480;28;20025;-84
2023/08/09 03:13:40;;;;;;;5.25;1.08;;;10.60;99.90;;;;;;5034137;28;20037;-82
2023/08/09 03:16:06;;;;;;;3.35;1.42;;;10.60;99.90;;;;;;5026823;28;20037;-83
2023/08/09 03:18:34;;;;;;;3.75;1.45;;;10.60;99.90;;;;;;5026254;28;20026;-82
2023/08/09 03:20:59;;;;;;;5.03;1.17;;;10.60;99.90;;;;;;5010251;28;20032;-83
2023/08/09 03:23:25;;;;;;;3.30;1.15;;;10.60;99.90;;;;;;5023446;28;20049;-83
2023/08/09 03:25:51;;;;;;;3.10;1.23;;;10.60;99.90;;;;;;5020586;28;20032;-83
2023/08/09 03:28:16;;;;;;;4.50;1.30;;;10.60;99.90;;;;;;5020042;28;20026;-84
2023/08/09 03:30:42;;;;;;;3.45;1.40;;;10.60;99.90;;;;;;5023541;28;20045;-84
2023/08/09 03:33:08;;;;;;;2.20;1.02;;;10.60;99.90;;;;;;5024526;28;20017;-84
2023/08/09 03:35:34;;;;;;;2.97;0.90;;;10.60;99.90;;;;;;5001043;28;20485;-83
2023/08/09 03:38:00;;;;;;;4.65;1.30;;;10.70;99.90;;;;;;5029245;28;20022;-83
2023/08/09 03:40:25;;;;;;;6.03;1.77;;;10.60;99.90;;;;;;5008635;28;20504;-84
2023/08/09 03:42:51;;;;;;;5.75;1.25;;;10.70;99.90;;;;;;5028456;28;20025;-83
2023/08/09 03:45:17;;;;;;;2.05;1.15;;;10.60;99.90;;;;;;5024542;28;20080;-83
2023/08/09 03:47:43;;;;;;;3.63;1.20;;;10.60;99.90;;;;;;5032606;28;20105;-82
2023/08/09 03:50:10;;;;;;;3.03;1.25;;;10.60;99.90;;;;;;5024514;28;20018;-82
2023/08/09 03:52:36;;;;;;;2.70;1.05;;;10.60;99.90;;;;;;5020878;28;20030;-83
2023/08/09 03:55:02;;;;;;;5.72;1.08;;;10.60;99.90;;;;;;5024693;28;20089;-83
2023/08/09 03:57:27;;;;;;;4.38;1.30;;;10.70;99.90;;;;;;5027390;28;20068;-84
2023/08/09 03:59:54;;;;;;;4.43;1.05;;;10.70;99.90;;;;;;5027120;28;20040;-82
2023/08/09 04:02:20;;;;;;;4.90;1.30;;;10.60;99.90;;;;;;5029806;28;20026;-83
2023/08/09 04:04:46;;;;;;;2.03;1.13;;;10.60;99.90;;;;;;5031353;28;20021;-83
2023/08/09 04:07:11;;;;;;;5.63;2.05;;;10.60;99.90;;;;;;5028011;28;20108;-85
2023/08/09 04:09:37;;;;;;;6.82;1.60;;;10.60;99.90;;;;;;5028075;28;20576;-84
2023/08/09 04:12:05;;;;;;;4.35;1.05;;;10.60;99.90;;;;;;5030725;28;20045;-81
2023/08/09 04:14:33;;;;;;;4.28;1.02;;;10.60;99.90;;;;;;5029369;28;20037;-82
2023/08/09 04:16:59;;;;;;;2.08;1.25;;;10.60;99.90;;;;;;5029609;28;20183;-82
2023/08/09 04:19:26;;;;;;;2.08;1.27;;;10.60;99.90;;;;;;5028094;28;20022;-83
2023/08/09 04:21:53;;;;;;;4.30;1.63;;;10.60;99.90;;;;;;5017909;28;20118;-82
2023/08/09 04:24:19;;;;;;;6.35;2.22;;;10.60;99.90;;;;;;5026072;28;20018;-83
2023/08/09 04:26:44;;;;;;;10.70;1.67;;;10.60;99.90;;;;;;5025441;28;20091;-83
2023/08/09 04:29:10;;;;;;;3.55;1.38;;;10.70;99.90;;;;;;5030016;28;20126;-83
2023/08/09 04:31:36;;;;;;;3.10;1.45;;;10.60;99.90;;;;;;5025521;28;20057;-83
2023/08/09 04:34:02;;;;;;;5.15;1.42;;;10.70;99.90;;;;;;5028225;28;20469;-82
2023/08/09 04:36:28;;;;;;;5.20;1.65;;;10.70;99.90;;;;;;5021784;28;20122;-83
2023/08/09 04:38:54;;;;;;;5.05;1.23;;;10.70;99.90;;;;;;5027013;28;20025;-82
2023/08/09 04:41:19;;;;;;;3.10;2.45;;;10.70;99.90;;;;;;5028481;28;20079;-82
2023/08/09 04:44:11;;;;;;;4.18;2.13;;;10.70;99.90;;;;;;5029196;28;20022;-83
2023/08/09 04:46:38;;;;;;;6.07;2.00;;;10.80;99.90;;;;;;5026489;28;20022;-82
2023/08/09 04:49:04;;;;;;;4.82;1.65;;;10.80;99.90;;;;;;5030188;28;20040;-83
2023/08/09 04:51:29;;;;;;;5.15;1.70;;;10.80;99.90;;;;;;5031104;28;20017;-83
2023/08/09 04:53:55;;;;;;;3.47;1.20;;;10.90;99.90;;;;;;5019856;28;20203;-83
2023/08/09 04:56:21;;;;;;;6.25;1.60;;;10.90;99.90;;;;;;5033689;28;20453;-81
2023/08/09 04:58:47;;;;;;;2.70;1.38;;;10.90;99.90;;;;;;5026938;28;20096;-82
2023/08/09 05:01:12;;;;;;;4.93;1.80;;;11.00;99.90;;;;;;5027724;28;20049;-83
2023/08/09 05:03:38;;;;;;;5.95;1.95;;;11.00;99.90;;;;;;5033251;28;20025;-81
2023/08/09 05:06:05;;;;;;;2.67;1.20;;;11.10;99.90;;;;;;5026768;28;20029;-83
2023/08/09 05:08:32;;;;;;;5.53;1.50;;;11.20;99.90;;;;;;5037837;28;20030;-83
2023/08/09 05:10:57;;;;;;;4.45;1.83;;;11.20;99.90;;;;;;5027318;28;20032;-81
2023/08/09 05:13:23;;;;;;;4.22;1.20;;;11.30;99.90;;;;;;5025426;28;20139;-82
2023/08/09 05:15:49;;;;;;;3.83;1.80;;;11.40;99.90;;;;;;5032073;28;20520;-83
2023/08/09 05:18:15;;;;;;;4.10;1.58;;;11.50;99.90;;;;;;5016253;28;20123;-83
2023/08/09 05:20:40;;;;;;;1.63;1.10;;;11.60;99.90;;;;;;5040987;28;20009;-84
2023/08/09 05:23:11;;;;;;;3.75;1.10;;;11.60;99.90;;;;;;5015667;28;20198;-84
2023/08/09 05:25:41;;;;;;;3.00;1.20;;;11.70;99.90;;;;;;5038599;28;20209;-84
2023/08/09 05:28:07;;;;;;;5.35;1.33;;;11.70;99.90;;;;;;5033319;28;20090;-84
2023/08/09 05:30:33;;;;;;;10.73;1.65;;;11.80;99.90;;;;;;5031364;28;20085;-83
2023/08/09 05:32:59;;;;;;;5.40;1.55;;;11.80;99.90;;;;;;5027154;28;20097;-84
2023/08/09 05:35:29;;;;;;;4.72;1.35;;;11.80;99.90;;;;;;5009170;28;20065;-80
2023/08/09 05:38:04;;;;;;;1.67;1.20;;;11.80;99.90;;;;;;5033340;28;20375;-84
2023/08/09 05:40:29;;;;;;;4.17;1.63;;;11.90;99.90;;;;;;5025096;28;20018;-82
2023/08/09 05:42:55;;;;;;;5.65;1.25;;;11.90;99.90;;;;;;5037341;28;20018;-84
2023/08/09 05:45:22;;;;;;;3.47;1.35;;;12.00;99.90;;;;;;5026699;28;20002;-84
2023/08/09 05:47:58;;;;;;;2.92;1.38;;;12.00;99.90;;;;;;5035736;28;20034;-83
2023/08/09 05:50:24;;;;;;;4.10;1.70;;;12.00;99.90;;;;;;5017155;28;20032;-84
2023/08/09 05:52:51;;;;;;;2.30;1.30;;;12.10;99.90;;;;;;5032563;28;20053;-84
2023/08/09 05:55:17;;;;;;;2.42;1.10;;;12.20;99.90;;;;;;5002302;28;20437;-83
2023/08/09 05:57:43;;;;;;;5.18;1.85;;;12.20;99.90;;;;;;5035971;28;20028;-84
2023/08/09 06:00:15;;;;;;;3.03;1.35;;;12.20;99.90;;;;;;5028950;28;20049;-84
2023/08/09 06:02:44;;;;;;;4.82;1.15;;;12.30;99.90;;;;;;5023994;28;20025;-85
2023/08/09 06:05:17;;;;;;;2.88;1.35;;;12.40;99.90;;;;;;5018747;28;20030;-84
2023/08/09 06:07:42;;;;;;;4.82;1.98;;;12.40;99.90;;;;;;5019136;28;20030;-84
2023/08/09 06:10:08;;;;;;;5.72;1.77;;;12.50;99.90;;;;;;5022370;28;20035;-85
2023/08/09 06:12:34;;;;;;;7.57;1.40;;;12.60;99.90;;;;;;5022695;28;20516;-83
2023/08/09 06:15:00;;;;;;;4.85;1.63;;;12.70;99.90;;;;;;5021557;28;20026;-85
2023/08/09 06:17:25;;;;;;;3.78;1.30;;;12.80;99.90;;;;;;5013131;28;20084;-84
2023/08/09 06:19:51;;;;;;;3.88;1.40;;;12.90;99.90;;;;;;5021586;28;20365;-84
2023/08/09 06:22:16;;;;;;;3.88;1.30;;;13.00;99.90;;;;;;5021065;28;20032;-83
2023/08/09 06:24:42;;;;;;;3.20;1.27;;;13.10;99.90;;;;;;5018951;28;20028;-84
2023/08/09 06:27:07;;;;;;;4.95;1.67;;;13.20;99.90;;;;;;5022649;28;20024;-82
2023/08/09 06:29:35;;;;;;;5.57;2.45;;;13.20;99.90;;;;;;5020831;28;20026;-85
2023/08/09 06:32:01;;;;;;;5.43;1.65;;;13.20;99.90;;;;;;5017891;28;20164;-84
2023/08/09 06:34:27;;;;;;;3.47;1.60;;;13.20;99.90;;;;;;5020865;28;20104;-84
2023/08/09 06:36:53;;;;;;;5.85;1.77;;;13.20;99.90;;;;;;5018139;28;20029;-84
2023/08/09 06:39:19;;;;;;;2.42;1.15;;;13.20;99.90;;;;;;5022358;28;20037;-85
2023/08/09 06:41:44;;;;;;;3.47;1.20;;;13.10;99.90;;;;;;5023296;28;20180;-84
2023/08/09 06:44:10;;;;;;;3.78;1.20;;;13.10;99.90;;;;;;5020060;28;20093;-84
2023/08/09 06:46:37;;;;;;;3.17;1.58;;;13.10;99.90;;;;;;5021744;28;20025;-82
2023/08/09 06:49:02;;;;;;;1.38;0.90;;;13.10;99.90;;;;;;5019852;28;20182;-84
2023/08/09 06:51:28;;;;;;;4.28;1.33;;;13.10;99.90;;;;;;5023452;28;20048;-84
2023/08/09 06:53:54;;;;;;;5.55;1.52;;;13.20;99.90;;;;;;5019745;28;20064;-83
2023/08/09 06:56:19;;;;;;;3.97;1.45;;;13.20;99.90;;;;;;5025196;28;20021;-83
2023/08/09 06:58:45;;;;;;;1.88;1.20;;;13.30;99.90;;;;;;5017149;28;20080;-83
2023/08/09 07:01:11;;;;;;;2.70;1.10;;;13.40;99.90;;;;;;5018041;28;20061;-82
2023/08/09 07:03:38;;;;;;;5.07;0.98;;;13.60;99.90;;;;;;5024241;28;20419;-84
2023/08/09 07:06:04;;;;;;;3.17;1.08;;;13.80;99.90;;;;;;5020877;28;20102;-85
2023/08/09 07:08:30;;;;;;;4.20;1.00;;;14.00;99.90;;;;;;5023935;28;20381;-84
2023/08/09 07:10:56;;;;;;;4.40;2.00;;;14.10;99.90;;;;;;5018120;28;20026;-85
2023/08/09 07:13:22;;;;;;;3.40;1.40;;;14.20;99.90;;;;;;5023232;28;20037;-84
2023/08/09 07:15:47;;;;;;;6.78;1.60;;;14.40;99.90;;;;;;5017795;28;20219;-85
2023/08/09 07:18:13;;;;;;;3.80;1.27;;;14.60;99.90;;;;;;5018840;28;20029;-85
2023/08/09 07:20:38;;;;;;;4.60;0.98;;;14.70;99.90;;;;;;5028110;28;20071;-85
2023/08/09 07:23:04;;;;;;;5.50;1.50;;;14.90;99.90;;;;;;5021586;28;20452;-83
2023/08/09 07:25:30;;;;;;;3.60;1.20;;;15.00;99.90;;;;;;5029035;28;20033;-86
2023/08/09 07:27:55;;;;;;;3.90;1.48;;;15.20;99.90;;;;;;5023126;28;20104;-83
2023/08/09 07:30:21;;;;;;;7.88;1.52;;;15.30;99.90;;;;;;5026274;28;20373;-84
2023/08/09 07:32:47;;;;;;;5.05;1.73;;;15.40;99.90;;;;;;5020180;28;20045;-81
2023/08/09 07:35:13;;;;;;;3.63;1.63;;;15.40;99.90;;;;;;5019210;28;20026;-84
2023/08/09 07:37:42;;;;;;;4.80;1.35;;;15.50;99.90;;;;;;5027336;28;20036;-79
2023/08/09 07:40:09;;;;;;;2.92;1.23;;;15.60;99.90;;;;;;5020945;28;20064;-84
2023/08/09 07:42:35;;;;;;;6.53;1.98;;;15.80;99.90;;;;;;5027797;28;20056;-84
2023/08/09 07:45:02;;;;;;;4.72;1.40;;;15.70;99.90;;;;;;5019604;28;20112;-84
2023/08/09 07:47:30;;;;;;;4.50;1.65;;;15.70;99.90;;;;;;5030084;28;20032;-84
2023/08/09 07:49:55;;;;;;;3.90;1.45;;;15.70;99.90;;;;;;5020571;28;20036;-81
2023/08/09 07:52:21;;;;;;;6.63;2.30;;;15.70;99.90;;;;;;5022291;28;20034;-82
2023/08/09 07:54:47;;;;;;;5.95;1.45;;;15.70;99.90;;;;;;5024992;28;20021;-85
2023/08/09 07:57:13;;;;;;;4.20;1.05;;;15.90;99.90;;;;;;5026205;28;20064;-84
2023/08/09 07:59:38;;;;;;;4.78;1.10;;;15.90;99.90;;;;;;5021294;28;20116;-82
2023/08/09 08:02:04;;;;;;;3.95;1.70;;;16.00;99.90;;;;;;5022602;28;20044;-83
2023/08/09 08:04:30;;;;;;;3.97;0.90;;;16.10;99.90;;;;;;5015890;28;20028;-83
2023/08/09 08:06:56;;;;;;;5.15;1.50;;;16.20;99.90;;;;;;5022906;28;20033;-82
2023/08/09 08:09:23;;;;;;;6.70;1.65;;;16.20;99.90;;;;;;5022378;28;20175;-83
2023/08/09 08:11:49;;;;;;;5.00;0.93;;;16.30;99.90;;;;;;5022484;28;20029;-83
2023/08/09 08:14:14;;;;;;;4.90;1.42;;;16.40;99.90;;;;;;5022499;28;20512;-83
2023/08/09 08:16:40;;;;;;;7.50;1.38;;;16.50;99.90;;;;;;5022733;28;20018;-84
2023/08/09 08:19:06;;;;;;;5.68;1.58;;;16.60;99.90;;;;;;5024938;28;20025;-85
2023/08/09 08:21:31;;;;;;;4.82;1.63;;;16.70;99.90;;;;;;5023377;28;20463;-85
2023/08/09 08:23:57;;;;;;;2.97;1.02;;;16.80;99.90;;;;;;5022445;28;20025;-83
2023/08/09 08:26:25;;;;;;;2.28;1.13;;;16.90;99.90;;;;;;5018599;28;20030;-85
2023/08/09 08:28:50;;;;;;;6.25;1.30;;;17.00;99.90;;;;;;5016779;28;20022;-82
2023/08/09 08:31:19;;;;;;;4.90;1.42;;;17.20;99.90;;;;;;5022954;28;20663;-83
2023/08/09 08:33:49;;;;;;;4.70;1.25;;;17.30;99.90;;;;;;5021396;28;20029;-81
2023/08/09 08:36:18;;;;;;;3.72;1.15;;;17.30;99.90;;;;;;5017433;28;20095;-81
2023/08/09 08:38:43;;;;;;;6.63;1.20;;;17.20;99.90;;;;;;5021462;28;20018;-83
2023/08/09 08:41:10;;;;;;;7.78;1.85;;;17.10;99.90;;;;;;5017899;28;20504;-83
2023/08/09 08:43:37;;;;;;;3.33;1.05;;;17.10;99.90;;;;;;5022064;28;20159;-83
2023/08/09 08:46:06;;;;;;;9.25;2.10;;;17.20;99.90;;;;;;5018440;28;20148;-80
2023/08/09 08:48:33;;;;;;;3.58;1.75;;;17.10;99.90;;;;;;5022587;28;20067;-83
2023/08/09 08:51:00;;;;;;;4.38;1.55;;;17.00;99.90;;;;;;5021739;28;20025;-85
2023/08/09 08:53:27;;;;;;;3.55;1.15;;;16.90;99.90;;;;;;5018892;28;20075;-84
2023/08/09 08:55:53;;;;;;;6.50;2.00;;;16.60;99.90;;;;;;5011695;28;20136;-84
2023/08/09 08:58:20;;;;;;;7.60;1.38;;;16.50;99.90;;;;;;5020280;28;20761;-84
2023/08/09 09:00:45;;;;;;;5.45;2.08;;;16.50;99.90;;;;;;5023030;28;20121;-82
2023/08/09 09:03:11;;;;;;;5.30;1.63;;;16.50;99.90;;;;;;5018982;28;20049;-85
2023/08/09 09:05:36;;;;;;;4.03;1.30;;;16.60;99.90;;;;;;5024073;28;20045;-84
2023/08/09 09:08:03;;;;;;;4.57;1.55;;;16.70;99.90;;;;;;5018203;28;20076;-84
2023/08/09 09:10:28;;;;;;;5.40;1.52;;;16.80;99.90;;;;;;5030396;28;20056;-83
2023/08/09 09:12:55;;;;;;;6.28;1.70;;;16.80;99.90;;;;;;5024274;28;20493;-82
2023/08/09 09:15:22;;;;;;;2.72;1.45;;;16.70;99.90;;;;;;5019669;28;20061;-83
2023/08/09 09:17:48;;;;;;;6.32;1.38;;;16.60;99.90;;;;;;5019472;28;20018;-84
2023/08/09 09:20:21;;;;;;;5.25;1.45;;;16.60;99.90;;;;;;5019393;28;20105;-84
2023/08/09 09:22:47;;;;;;;5.32;1.30;;;16.50;99.90;;;;;;5024990;28;20025;-84
2023/08/09 09:25:14;;;;;;;3.80;1.25;;;16.50;99.90;;;;;;5018846;28;20032;-83
2023/08/09 09:27:42;;;;;;;6.97;1.92;;;16.60;99.90;;;;;;5021210;28;20086;-83
2023/08/09 09:30:12;;;;;;;4.15;1.40;;;16.80;99.90;;;;;;5016117;28;20472;-83
2023/08/09 09:32:41;;;;;;;4.82;1.42;;;16.90;99.90;;;;;;5019996;28;20120;-84
2023/08/09 09:35:08;;;;;;;2.03;0.80;;;17.00;99.90;;;;;;5022903;28;20694;-82
2023/08/09 09:37:35;;;;;;;5.75;1.83;;;17.10;99.90;;;;;;5021128;28;20022;-82
2023/08/09 09:40:02;;;;;;;8.15;1.65;;;17.10;99.90;;;;;;5024070;28;20041;-84
2023/08/09 09:42:34;;;;;;;4.40;1.48;;;17.10;99.90;;;;;;5019500;28;20105;-84
2023/08/09 09:45:07;;;;;;;4.70;1.13;;;17.20;99.90;;;;;;5018732;28;20048;-81
2023/08/09 09:47:38;;;;;;;2.95;1.10;;;17.30;99.90;;;;;;5019402;28;20025;-84
2023/08/09 09:50:07;;;;;;;1.92;0.90;;;17.30;99.90;;;;;;5021730;28;20045;-83
2023/08/09 09:52:35;;;;;;;2.30;0.93;;;17.40;99.90;;;;;;5019743;28;20116;-83
2023/08/09 09:55:01;;;;;;;2.47;1.30;;;17.50;99.90;;;;;;5021578;28;20025;-82
2023/08/09 09:57:27;;;;;;;3.30;1.20;;;17.50;99.90;;;;;;5021047;28;20024;-81
2023/08/09 09:59:58;;;;;;;7.20;1.65;;;17.50;99.90;;;;;;5021220;28;20036;-82
2023/08/09 10:02:31;;;;;;;4.18;1.13;;;17.60;99.90;;;;;;5017493;28;20788;-82
2023/08/09 10:04:58;;;;;;;5.15;1.38;;;17.70;99.90;;;;;;5020993;28;20124;-82
2023/08/09 10:07:28;;;;;;;6.15;1.55;;;17.60;99.90;;;;;;5019543;28;20028;-82
2023/08/09 10:09:54;;;;;;;6.18;1.45;;;17.50;99.90;;;;;;5011516;28;20120;-81
2023/08/09 10:12:20;;;;;;;3.65;1.65;;;17.40;99.90;;;;;;5022072;28;20045;-83
2023/08/09 10:14:46;;;;;;;3.17;1.25;;;17.30;99.90;;;;;;5012815;28;20032;-84
2023/08/09 10:17:11;;;;;;;4.57;1.48;;;17.30;99.90;;;;;;5021211;28;20029;-85
2023/08/09 10:19:39;;;;;;;3.72;1.25;;;17.30;99.90;;;;;;5020666;28;20022;-82
2023/08/09 10:22:05;;;;;;;2.67;1.55;;;17.40;99.90;;;;;;5020411;28;20030;-82
2023/08/09 10:24:30;;;;;;;3.80;1.13;;;17.50;99.90;;;;;;5019949;28;20112;-81
2023/08/09 10:27:01;;;;;;;6.75;1.35;;;17.70;99.90;;;;;;5014960;28;20064;-84
2023/08/09 10:29:28;;;;;;;6.53;1.10;;;17.70;99.90;;;;;;5021810;28;20029;-85
2023/08/09 10:32:00;;;;;;;8.50;1.20;;;17.80;99.90;;;;;;5020722;28;20450;-84
2023/08/09 10:34:42;;;;;;;5.30;1.30;;;17.90;99.90;;;;;;5020179;28;20114;-83
2023/08/09 10:37:10;;;;;;;6.28;1.20;;;17.90;99.90;;;;;;5018877;28;20078;-82
2023/08/09 10:39:36;;;;;;;5.72;1.08;;;18.10;99.90;;;;;;5019552;28;20060;-83
2023/08/09 10:42:06;;;;;;;3.75;1.33;;;18.10;99.90;;;;;;5019580;28;20452;-82
2023/08/09 10:44:40;;;;;;;4.25;1.50;;;18.10;99.90;;;;;;5023364;28;20029;-82
2023/08/09 10:47:12;;;;;;;2.40;1.05;;;18.10;99.90;;;;;;5016696;28;20040;-83
2023/08/09 10:49:57;;;;;;;3.28;1.30;;;18.20;99.90;;;;;;5021047;28;20067;-84
2023/08/09 10:52:30;;;;;;;5.70;1.23;;;18.30;99.90;;;;;;5007313;28;20022;-82
2023/08/09 10:55:25;;;;;;;6.30;1.80;;;18.50;99.90;;;;;;5012840;28;20034;-83
2023/08/09 10:57:52;;;;;;;2.13;0.90;;;18.60;99.90;;;;;;5019886;28;20026;-85
2023/08/09 11:00:20;;;;;;;2.25;1.10;;;18.70;99.90;;;;;;5025176;28;20608;-84
2023/08/09 11:02:54;;;;;;;5.75;1.45;;;18.50;99.90;;;;;;5024824;28;20017;-83
2023/08/09 11:05:22;;;;;;;5.13;1.27;;;18.30;99.90;;;;;;5026157;28;20045;-83
2023/08/09 11:07:50;;;;;;;6.47;1.48;;;18.20;99.90;;;;;;5024329;28;20091;-84
2023/08/09 11:10:28;;;;;;;6.18;1.88;;;18.10;99.90;;;;;;5024525;28;20076;-81
2023/08/09 11:12:54;;;;;;;4.68;1.73;;;18.10;99.90;;;;;;5022221;28;20036;-82
2023/08/09 11:15:20;;;;;;;6.70;1.40;;;18.20;99.90;;;;;;5026617;28;20464;-84
2023/08/09 11:17:50;;;;;;;4.97;1.05;;;18.30;99.90;;;;;;5015987;28;20097;-84
2023/08/09 11:20:16;;;;;;;2.05;0.73;;;18.50;99.90;;;;;;5029909;28;20018;-82
2023/08/09 11:22:56;;;;;;;5.22;1.30;;;18.50;99.90;;;;;;5023926;28;20029;-86
2023/08/09 11:25:23;;;;;;;4.78;1.00;;;18.40;99.90;;;;;;5041400;28;20094;-83
2023/08/09 11:27:53;;;;;;;9.63;1.70;;;18.30;99.90;;;;;;5045232;28;20032;-84
2023/08/09 11:30:20;;;;;;;2.35;1.20;;;18.10;99.90;;;;;;5019723;28;20026;-82
2023/08/09 11:32:56;;;;;;;4.40;1.20;;;17.20;99.90;;;;;;5024045;28;20089;-82
2023/08/09 11:35:29;;;;;;;4.25;1.27;;;16.60;99.90;;;;;;5017490;28;20097;-82
2023/08/09 11:37:54;;;;;;;7.13;1.15;;;16.20;99.90;;;;;;5015061;28;20052;-81
2023/08/09 11:40:20;;;;;;;3.65;1.27;;;16.00;99.90;;;;;;5019701;28;20532;-81
2023/08/09 11:42:46;;;;;;;4.57;0.95;;;15.80;99.90;;;;;;5022725;28;20017;-81
2023/08/09 11:45:12;;;;;;;2.97;1.23;;;15.60;99.90;;;;;;5021845;28;20611;-82
2023/08/09 11:47:37;;;;;;;2.08;1.10;;;15.60;99.90;;;;;;5021590;28;20036;-81
2023/08/09 11:50:35;;;;;;;6.72;1.23;;;15.60;99.90;;;;;;5022693;28;20041;-80
2023/08/09 11:53:01;;;;;;;7.18;1.35;;;15.60;99.90;;;;;;4974294;28;20061;-81
2023/08/09 11:55:27;;;;;;;1.92;1.27;;;15.60;99.90;;;;;;5021293;28;20053;-84
2023/08/09 11:57:53;;;;;;;3.30;1.63;;;15.80;99.90;;;;;;5023664;28;20029;-85
2023/08/09 12:00:25;;;;;;;3.88;1.38;;;15.80;99.90;;;;;;5024576;28;20044;-84
2023/08/09 12:02:55;;;;;;;3.55;1.08;;;15.90;99.90;;;;;;5013446;28;20029;-84
2023/08/09 12:05:22;;;;;;;3.92;1.20;;;15.90;99.90;;;;;;5023970;28;20052;-86
2023/08/09 12:07:49;;;;;;;5.50;1.10;;;16.00;99.90;;;;;;5021159;28;20038;-83
2023/08/09 12:10:18;;;;;;;3.97;0.90;;;16.10;99.90;;;;;;5026336;28;20391;-84
2023/08/09 12:12:44;;;;;;;4.00;1.30;;;16.20;99.90;;;;;;5021853;28;20037;-83
2023/08/09 12:15:10;;;;;;;3.45;0.93;;;16.10;99.90;;;;;;5024742;28;20025;-83
2023/08/09 12:17:36;;;;;;;4.72;1.42;;;16.30;99.90;;;;;;5025661;28;20028;-83
2023/08/09 12:20:06;;;;;;;4.88;1.38;;;16.30;99.90;;;;;;5022627;28;20556;-84
2023/08/09 12:22:33;;;;;;;4.85;1.52;;;16.40;99.90;;;;;;5026445;28;20044;-84
2023/08/09 12:25:00;;;;;;;6.90;1.80;;;16.50;99.90;;;;;;5024770;28;20030;-84
2023/08/09 12:27:26;;;;;;;2.63;1.02;;;16.60;99.90;;;;;;5034140;28;20104;-82
2023/08/09 12:29:52;;;;;;;3.05;0.88;;;16.60;99.90;;;;;;5024199;28;20057;-84
2023/08/09 12:32:18;;;;;;;3.30;0.77;;;16.70;99.90;;;;;;5021704;28;20033;-85
2023/08/09 12:34:48;;;;;;;3.85;1.08;;;16.80;99.90;;;;;;5025113;28;20037;-83
2023/08/09 12:37:14;;;;;;;1.52;0.80;;;16.90;99.90;;;;;;5020901;28;20074;-85
2023/08/09 12:39:39;;;;;;;7.15;1.42;;;17.10;99.90;;;;;;5024598;28;20112;-85
2023/08/09 12:42:21;;;;;;;5.22;1.17;;;17.10;99.90;;;;;;5023692;28;20036;-85
2023/08/09 12:44:46;;;;;;;1.10;0.80;;;17.20;99.90;;;;;;5028455;28;20104;-85
2023/08/09 12:47:12;;;;;;;2.67;0.88;;;17.20;99.90;;;;;;5021822;28;20444;-84
2023/08/09 12:49:38;;;;;;;3.40;1.08;;;17.30;99.90;;;;;;5027996;28;20027;-82